sensor_id;sensor_type;location;lat;lon;timestamp;P1;durP1;ratioP1;P2;durP2;ratioP2
38653;SDS011;24413;52.450;20.706;2022-12-26T00:01:32;100.00;;;47.47;;
38653;SDS011;24413;52.450;20.706;2022-12-26T00:03:59;94.72;;;46.00;;
38653;SDS011;24413;52.450;20.706;2022-12-26T00:06:25;110.22;;;49.88;;
38653;SDS011;24413;52.450;20.706;2022-12-26T00:08:52;87.70;;;42.72;;
38653;SDS011;24413;52.450;20.706;2022-12-26T00:11:18;84.97;;;41.53;;
38653;SDS011;24413;52.450;20.706;2022-12-26T00:13:44;85.07;;;42.40;;
38653;SDS011;24413;52.450;20.706;2022-12-26T00:16:18;82.18;;;41.78;;
38653;SDS011;24413;52.450;20.706;2022-12-26T00:18:44;93.30;;;48.65;;
38653;SDS011;24413;52.450;20.706;2022-12-26T00:21:10;91.18;;;45.65;;
38653;SDS011;24413;52.450;20.706;2022-12-26T00:23:37;94.22;;;45.90;;
38653;SDS011;24413;52.450;20.706;2022-12-26T00:26:03;81.05;;;43.40;;
38653;SDS011;24413;52.450;20.706;2022-12-26T00:28:36;86.18;;;44.15;;
38653;SDS011;24413;52.450;20.706;2022-12-26T00:31:05;81.55;;;43.22;;
38653;SDS011;24413;52.450;20.706;2022-12-26T00:33:33;86.68;;;39.97;;
38653;SDS011;24413;52.450;20.706;2022-12-26T00:36:03;70.32;;;36.90;;
38653;SDS011;24413;52.450;20.706;2022-12-26T00:38:32;68.55;;;37.80;;
38653;SDS011;24413;52.450;20.706;2022-12-26T00:40:58;66.18;;;37.33;;
38653;SDS011;24413;52.450;20.706;2022-12-26T00:43:23;67.80;;;36.10;;
38653;SDS011;24413;52.450;20.706;2022-12-26T00:45:49;74.07;;;36.58;;
38653;SDS011;24413;52.450;20.706;2022-12-26T00:48:14;66.22;;;34.80;;
38653;SDS011;24413;52.450;20.706;2022-12-26T00:50:39;64.70;;;36.83;;
38653;SDS011;24413;52.450;20.706;2022-12-26T00:53:05;66.28;;;36.42;;
38653;SDS011;24413;52.450;20.706;2022-12-26T00:55:30;62.60;;;35.70;;
38653;SDS011;24413;52.450;20.706;2022-12-26T00:57:56;64.78;;;34.78;;
38653;SDS011;24413;52.450;20.706;2022-12-26T01:00:21;62.90;;;34.45;;
38653;SDS011;24413;52.450;20.706;2022-12-26T01:02:47;63.20;;;35.13;;
38653;SDS011;24413;52.450;20.706;2022-12-26T01:05:12;62.70;;;35.42;;
38653;SDS011;24413;52.450;20.706;2022-12-26T01:07:38;71.40;;;37.13;;
38653;SDS011;24413;52.450;20.706;2022-12-26T01:10:04;63.90;;;34.80;;
38653;SDS011;24413;52.450;20.706;2022-12-26T01:12:30;67.05;;;35.78;;
38653;SDS011;24413;52.450;20.706;2022-12-26T01:14:56;58.30;;;33.75;;
38653;SDS011;24413;52.450;20.706;2022-12-26T01:17:22;69.72;;;36.78;;
38653;SDS011;24413;52.450;20.706;2022-12-26T01:19:48;68.45;;;37.50;;
38653;SDS011;24413;52.450;20.706;2022-12-26T01:22:13;66.55;;;37.05;;
38653;SDS011;24413;52.450;20.706;2022-12-26T01:24:39;69.20;;;37.92;;
38653;SDS011;24413;52.450;20.706;2022-12-26T01:27:04;70.70;;;39.22;;
38653;SDS011;24413;52.450;20.706;2022-12-26T01:29:29;70.80;;;39.10;;
38653;SDS011;24413;52.450;20.706;2022-12-26T01:31:55;58.08;;;36.47;;
38653;SDS011;24413;52.450;20.706;2022-12-26T01:34:20;65.10;;;36.58;;
38653;SDS011;24413;52.450;20.706;2022-12-26T01:36:46;69.38;;;36.78;;
38653;SDS011;24413;52.450;20.706;2022-12-26T01:39:11;70.68;;;40.33;;
38653;SDS011;24413;52.450;20.706;2022-12-26T01:41:36;61.90;;;37.55;;
38653;SDS011;24413;52.450;20.706;2022-12-26T01:44:06;73.15;;;41.28;;
38653;SDS011;24413;52.450;20.706;2022-12-26T01:46:51;68.75;;;38.05;;
38653;SDS011;24413;52.450;20.706;2022-12-26T01:49:20;70.90;;;41.28;;
38653;SDS011;24413;52.450;20.706;2022-12-26T01:52:05;72.75;;;40.00;;
38653;SDS011;24413;52.450;20.706;2022-12-26T01:54:33;78.40;;;39.55;;
38653;SDS011;24413;52.450;20.706;2022-12-26T01:57:04;71.55;;;40.25;;
38653;SDS011;24413;52.450;20.706;2022-12-26T01:59:34;77.85;;;41.03;;
38653;SDS011;24413;52.450;20.706;2022-12-26T02:02:00;71.68;;;39.42;;
38653;SDS011;24413;52.450;20.706;2022-12-26T02:04:27;67.95;;;38.85;;
38653;SDS011;24413;52.450;20.706;2022-12-26T02:07:12;71.55;;;37.70;;
38653;SDS011;24413;52.450;20.706;2022-12-26T02:09:38;72.53;;;39.30;;
38653;SDS011;24413;52.450;20.706;2022-12-26T02:14:31;70.97;;;41.05;;
38653;SDS011;24413;52.450;20.706;2022-12-26T02:16:57;69.22;;;39.05;;
38653;SDS011;24413;52.450;20.706;2022-12-26T02:27:34;63.30;;;37.63;;
38653;SDS011;24413;52.450;20.706;2022-12-26T02:30:30;56.88;;;37.40;;
38653;SDS011;24413;52.450;20.706;2022-12-26T02:51:24;64.82;;;36.92;;
38653;SDS011;24413;52.450;20.706;2022-12-26T02:54:36;64.90;;;40.17;;
38653;SDS011;24413;52.450;20.706;2022-12-26T02:57:57;58.60;;;34.63;;
38653;SDS011;24413;52.450;20.706;2022-12-26T03:00:34;55.67;;;35.72;;
38653;SDS011;24413;52.450;20.706;2022-12-26T03:03:21;51.58;;;33.47;;
38653;SDS011;24413;52.450;20.706;2022-12-26T03:06:11;59.53;;;35.88;;
38653;SDS011;24413;52.450;20.706;2022-12-26T03:08:59;66.32;;;35.75;;
38653;SDS011;24413;52.450;20.706;2022-12-26T03:11:53;57.70;;;33.25;;
38653;SDS011;24413;52.450;20.706;2022-12-26T03:14:41;52.33;;;33.15;;
38653;SDS011;24413;52.450;20.706;2022-12-26T03:17:23;56.85;;;31.55;;
38653;SDS011;24413;52.450;20.706;2022-12-26T03:20:11;50.47;;;31.25;;
38653;SDS011;24413;52.450;20.706;2022-12-26T03:22:53;49.35;;;30.90;;
38653;SDS011;24413;52.450;20.706;2022-12-26T03:25:23;58.83;;;31.10;;
38653;SDS011;24413;52.450;20.706;2022-12-26T03:28:24;55.67;;;31.33;;
38653;SDS011;24413;52.450;20.706;2022-12-26T03:30:51;54.78;;;34.67;;
38653;SDS011;24413;52.450;20.706;2022-12-26T03:33:27;60.20;;;37.03;;
38653;SDS011;24413;52.450;20.706;2022-12-26T03:36:14;65.35;;;37.85;;
38653;SDS011;24413;52.450;20.706;2022-12-26T03:42:36;65.30;;;38.45;;
38653;SDS011;24413;52.450;20.706;2022-12-26T03:48:43;70.65;;;41.47;;
38653;SDS011;24413;52.450;20.706;2022-12-26T04:01:11;62.40;;;39.58;;
38653;SDS011;24413;52.450;20.706;2022-12-26T04:03:58;68.82;;;43.13;;
38653;SDS011;24413;52.450;20.706;2022-12-26T04:06:51;68.95;;;42.10;;
38653;SDS011;24413;52.450;20.706;2022-12-26T04:09:41;65.45;;;39.00;;
38653;SDS011;24413;52.450;20.706;2022-12-26T04:12:28;67.93;;;38.58;;
38653;SDS011;24413;52.450;20.706;2022-12-26T04:15:15;61.40;;;36.33;;
38653;SDS011;24413;52.450;20.706;2022-12-26T04:18:04;60.13;;;37.60;;
38653;SDS011;24413;52.450;20.706;2022-12-26T04:23:53;63.50;;;39.22;;
38653;SDS011;24413;52.450;20.706;2022-12-26T04:26:42;62.78;;;37.83;;
38653;SDS011;24413;52.450;20.706;2022-12-26T04:29:28;58.00;;;36.28;;
38653;SDS011;24413;52.450;20.706;2022-12-26T04:32:15;59.83;;;34.95;;
38653;SDS011;24413;52.450;20.706;2022-12-26T04:38:07;55.05;;;35.28;;
38653;SDS011;24413;52.450;20.706;2022-12-26T04:40:54;58.22;;;37.13;;
38653;SDS011;24413;52.450;20.706;2022-12-26T04:43:40;50.55;;;34.30;;
38653;SDS011;24413;52.450;20.706;2022-12-26T04:46:24;54.38;;;33.85;;
38653;SDS011;24413;52.450;20.706;2022-12-26T04:48:51;52.35;;;32.80;;
38653;SDS011;24413;52.450;20.706;2022-12-26T04:54:01;52.92;;;31.17;;
38653;SDS011;24413;52.450;20.706;2022-12-26T04:56:27;53.58;;;36.53;;
38653;SDS011;24413;52.450;20.706;2022-12-26T04:58:52;57.22;;;34.95;;
38653;SDS011;24413;52.450;20.706;2022-12-26T05:01:18;49.78;;;32.45;;
38653;SDS011;24413;52.450;20.706;2022-12-26T05:04:02;49.60;;;31.73;;
38653;SDS011;24413;52.450;20.706;2022-12-26T05:06:46;49.25;;;30.95;;
38653;SDS011;24413;52.450;20.706;2022-12-26T05:09:30;53.10;;;30.05;;
38653;SDS011;24413;52.450;20.706;2022-12-26T05:11:58;44.13;;;30.40;;
38653;SDS011;24413;52.450;20.706;2022-12-26T05:14:23;43.50;;;29.00;;
38653;SDS011;24413;52.450;20.706;2022-12-26T05:16:49;48.50;;;31.58;;
38653;SDS011;24413;52.450;20.706;2022-12-26T05:19:33;47.83;;;29.80;;
38653;SDS011;24413;52.450;20.706;2022-12-26T05:22:17;46.55;;;30.85;;
38653;SDS011;24413;52.450;20.706;2022-12-26T05:25:01;51.35;;;31.40;;
38653;SDS011;24413;52.450;20.706;2022-12-26T05:27:44;48.30;;;31.00;;
38653;SDS011;24413;52.450;20.706;2022-12-26T05:30:28;50.05;;;31.95;;
38653;SDS011;24413;52.450;20.706;2022-12-26T05:32:54;48.13;;;32.95;;
38653;SDS011;24413;52.450;20.706;2022-12-26T05:35:38;40.22;;;29.50;;
38653;SDS011;24413;52.450;20.706;2022-12-26T05:38:04;41.33;;;26.42;;
38653;SDS011;24413;52.450;20.706;2022-12-26T05:40:29;39.90;;;28.20;;
38653;SDS011;24413;52.450;20.706;2022-12-26T05:42:55;40.35;;;26.38;;
38653;SDS011;24413;52.450;20.706;2022-12-26T05:45:21;40.00;;;23.60;;
38653;SDS011;24413;52.450;20.706;2022-12-26T05:47:46;42.13;;;27.42;;
38653;SDS011;24413;52.450;20.706;2022-12-26T05:50:12;35.85;;;25.42;;
38653;SDS011;24413;52.450;20.706;2022-12-26T05:52:37;29.88;;;21.40;;
38653;SDS011;24413;52.450;20.706;2022-12-26T05:55:03;35.25;;;24.40;;
38653;SDS011;24413;52.450;20.706;2022-12-26T05:57:28;33.05;;;23.33;;
38653;SDS011;24413;52.450;20.706;2022-12-26T05:59:54;33.30;;;23.23;;
38653;SDS011;24413;52.450;20.706;2022-12-26T06:02:19;28.30;;;22.55;;
38653;SDS011;24413;52.450;20.706;2022-12-26T06:04:44;25.88;;;17.88;;
38653;SDS011;24413;52.450;20.706;2022-12-26T06:07:10;30.20;;;19.38;;
38653;SDS011;24413;52.450;20.706;2022-12-26T06:09:35;49.42;;;30.10;;
38653;SDS011;24413;52.450;20.706;2022-12-26T06:12:01;23.20;;;17.05;;
38653;SDS011;24413;52.450;20.706;2022-12-26T06:14:26;24.75;;;17.58;;
38653;SDS011;24413;52.450;20.706;2022-12-26T06:16:51;21.90;;;17.30;;
38653;SDS011;24413;52.450;20.706;2022-12-26T06:19:17;25.17;;;17.50;;
38653;SDS011;24413;52.450;20.706;2022-12-26T06:21:42;25.17;;;16.88;;
38653;SDS011;24413;52.450;20.706;2022-12-26T06:24:08;19.80;;;16.35;;
38653;SDS011;24413;52.450;20.706;2022-12-26T06:26:33;21.17;;;15.98;;
38653;SDS011;24413;52.450;20.706;2022-12-26T06:28:59;25.77;;;17.02;;
38653;SDS011;24413;52.450;20.706;2022-12-26T06:31:24;19.20;;;15.85;;
38653;SDS011;24413;52.450;20.706;2022-12-26T06:33:51;24.17;;;16.10;;
38653;SDS011;24413;52.450;20.706;2022-12-26T06:36:21;18.40;;;15.40;;
38653;SDS011;24413;52.450;20.706;2022-12-26T06:38:49;19.40;;;14.25;;
38653;SDS011;24413;52.450;20.706;2022-12-26T06:41:15;17.38;;;14.35;;
38653;SDS011;24413;52.450;20.706;2022-12-26T06:43:42;20.15;;;15.20;;
38653;SDS011;24413;52.450;20.706;2022-12-26T06:46:09;17.88;;;14.77;;
38653;SDS011;24413;52.450;20.706;2022-12-26T06:48:36;20.33;;;15.52;;
38653;SDS011;24413;52.450;20.706;2022-12-26T06:51:08;21.70;;;15.77;;
38653;SDS011;24413;52.450;20.706;2022-12-26T06:53:36;21.20;;;16.15;;
38653;SDS011;24413;52.450;20.706;2022-12-26T06:56:09;21.48;;;15.13;;
38653;SDS011;24413;52.450;20.706;2022-12-26T06:58:36;17.43;;;11.67;;
38653;SDS011;24413;52.450;20.706;2022-12-26T07:01:08;17.05;;;12.88;;
38653;SDS011;24413;52.450;20.706;2022-12-26T07:03:36;18.17;;;12.85;;
38653;SDS011;24413;52.450;20.706;2022-12-26T07:08:58;18.48;;;14.40;;
38653;SDS011;24413;52.450;20.706;2022-12-26T07:11:27;20.50;;;14.57;;
38653;SDS011;24413;52.450;20.706;2022-12-26T07:13:54;20.58;;;14.95;;
38653;SDS011;24413;52.450;20.706;2022-12-26T07:16:20;19.75;;;14.38;;
38653;SDS011;24413;52.450;20.706;2022-12-26T07:18:46;19.83;;;14.93;;
38653;SDS011;24413;52.450;20.706;2022-12-26T07:21:12;21.73;;;15.98;;
38653;SDS011;24413;52.450;20.706;2022-12-26T07:23:38;22.17;;;16.45;;
38653;SDS011;24413;52.450;20.706;2022-12-26T07:26:04;21.67;;;15.60;;
38653;SDS011;24413;52.450;20.706;2022-12-26T07:28:30;24.02;;;17.38;;
38653;SDS011;24413;52.450;20.706;2022-12-26T07:30:55;22.98;;;16.70;;
38653;SDS011;24413;52.450;20.706;2022-12-26T07:33:24;23.45;;;17.27;;
38653;SDS011;24413;52.450;20.706;2022-12-26T07:35:53;31.30;;;19.48;;
38653;SDS011;24413;52.450;20.706;2022-12-26T07:38:22;21.85;;;16.48;;
38653;SDS011;24413;52.450;20.706;2022-12-26T07:40:48;30.00;;;18.33;;
38653;SDS011;24413;52.450;20.706;2022-12-26T07:43:13;23.88;;;17.50;;
38653;SDS011;24413;52.450;20.706;2022-12-26T07:45:39;27.52;;;18.08;;
38653;SDS011;24413;52.450;20.706;2022-12-26T07:48:04;28.25;;;19.65;;
38653;SDS011;24413;52.450;20.706;2022-12-26T07:50:30;29.20;;;20.67;;
38653;SDS011;24413;52.450;20.706;2022-12-26T07:52:56;28.80;;;20.13;;
38653;SDS011;24413;52.450;20.706;2022-12-26T07:55:23;56.50;;;38.17;;
38653;SDS011;24413;52.450;20.706;2022-12-26T07:57:49;81.03;;;50.25;;
38653;SDS011;24413;52.450;20.706;2022-12-26T08:00:17;29.33;;;20.42;;
38653;SDS011;24413;52.450;20.706;2022-12-26T08:02:43;27.58;;;17.77;;
38653;SDS011;24413;52.450;20.706;2022-12-26T08:05:11;42.30;;;26.67;;
38653;SDS011;24413;52.450;20.706;2022-12-26T08:07:36;57.97;;;38.80;;
38653;SDS011;24413;52.450;20.706;2022-12-26T08:10:02;46.25;;;34.45;;
38653;SDS011;24413;52.450;20.706;2022-12-26T08:12:27;28.27;;;21.35;;
38653;SDS011;24413;52.450;20.706;2022-12-26T08:14:53;48.17;;;31.88;;
38653;SDS011;24413;52.450;20.706;2022-12-26T08:17:18;46.15;;;34.17;;
38653;SDS011;24413;52.450;20.706;2022-12-26T08:19:43;29.75;;;23.30;;
38653;SDS011;24413;52.450;20.706;2022-12-26T08:22:09;36.75;;;24.50;;
38653;SDS011;24413;52.450;20.706;2022-12-26T08:24:34;45.47;;;27.80;;
38653;SDS011;24413;52.450;20.706;2022-12-26T08:27:00;47.67;;;29.92;;
38653;SDS011;24413;52.450;20.706;2022-12-26T08:29:25;37.25;;;25.00;;
38653;SDS011;24413;52.450;20.706;2022-12-26T08:31:51;44.60;;;26.42;;
38653;SDS011;24413;52.450;20.706;2022-12-26T08:34:16;33.08;;;23.77;;
38653;SDS011;24413;52.450;20.706;2022-12-26T08:36:42;40.75;;;24.98;;
38653;SDS011;24413;52.450;20.706;2022-12-26T08:39:07;34.47;;;24.00;;
38653;SDS011;24413;52.450;20.706;2022-12-26T08:41:32;33.88;;;23.08;;
38653;SDS011;24413;52.450;20.706;2022-12-26T08:43:58;38.03;;;26.05;;
38653;SDS011;24413;52.450;20.706;2022-12-26T08:46:23;36.45;;;25.88;;
38653;SDS011;24413;52.450;20.706;2022-12-26T08:48:50;40.95;;;25.88;;
38653;SDS011;24413;52.450;20.706;2022-12-26T08:53:45;301.30;;;112.38;;
38653;SDS011;24413;52.450;20.706;2022-12-26T08:56:14;263.23;;;114.45;;
38653;SDS011;24413;52.450;20.706;2022-12-26T08:58:41;220.73;;;97.70;;
38653;SDS011;24413;52.450;20.706;2022-12-26T09:01:17;89.38;;;40.85;;
38653;SDS011;24413;52.450;20.706;2022-12-26T09:03:43;66.55;;;33.33;;
38653;SDS011;24413;52.450;20.706;2022-12-26T09:06:09;75.20;;;37.97;;
38653;SDS011;24413;52.450;20.706;2022-12-26T09:08:36;78.80;;;43.05;;
38653;SDS011;24413;52.450;20.706;2022-12-26T09:11:06;70.50;;;43.90;;
38653;SDS011;24413;52.450;20.706;2022-12-26T09:13:34;88.47;;;55.08;;
38653;SDS011;24413;52.450;20.706;2022-12-26T09:16:16;85.22;;;50.38;;
38653;SDS011;24413;52.450;20.706;2022-12-26T09:18:43;72.03;;;41.72;;
38653;SDS011;24413;52.450;20.706;2022-12-26T09:21:10;50.47;;;32.55;;
38653;SDS011;24413;52.450;20.706;2022-12-26T09:23:36;45.30;;;31.17;;
38653;SDS011;24413;52.450;20.706;2022-12-26T09:26:07;42.83;;;28.67;;
38653;SDS011;24413;52.450;20.706;2022-12-26T09:28:40;48.10;;;29.95;;
38653;SDS011;24413;52.450;20.706;2022-12-26T09:31:08;49.60;;;31.55;;
38653;SDS011;24413;52.450;20.706;2022-12-26T09:33:36;42.88;;;29.95;;
38653;SDS011;24413;52.450;20.706;2022-12-26T09:36:06;40.60;;;29.70;;
38653;SDS011;24413;52.450;20.706;2022-12-26T09:38:32;57.92;;;40.53;;
38653;SDS011;24413;52.450;20.706;2022-12-26T09:44:04;65.25;;;39.58;;
38653;SDS011;24413;52.450;20.706;2022-12-26T09:49:12;65.47;;;43.15;;
38653;SDS011;24413;52.450;20.706;2022-12-26T09:51:39;58.90;;;42.17;;
38653;SDS011;24413;52.450;20.706;2022-12-26T09:54:08;55.20;;;37.42;;
38653;SDS011;24413;52.450;20.706;2022-12-26T09:56:39;57.15;;;38.50;;
38653;SDS011;24413;52.450;20.706;2022-12-26T09:59:06;52.03;;;36.47;;
38653;SDS011;24413;52.450;20.706;2022-12-26T10:01:38;59.25;;;38.22;;
38653;SDS011;24413;52.450;20.706;2022-12-26T10:04:08;72.60;;;44.05;;
38653;SDS011;24413;52.450;20.706;2022-12-26T10:06:47;59.95;;;39.65;;
38653;SDS011;24413;52.450;20.706;2022-12-26T10:14:46;70.85;;;42.88;;
38653;SDS011;24413;52.450;20.706;2022-12-26T10:30:42;100.57;;;55.17;;
38653;SDS011;24413;52.450;20.706;2022-12-26T10:33:10;104.88;;;65.43;;
38653;SDS011;24413;52.450;20.706;2022-12-26T10:35:43;262.52;;;144.57;;
38653;SDS011;24413;52.450;20.706;2022-12-26T10:41:17;100.35;;;65.68;;
38653;SDS011;24413;52.450;20.706;2022-12-26T10:43:47;86.22;;;57.45;;
38653;SDS011;24413;52.450;20.706;2022-12-26T10:48:56;82.80;;;56.55;;
38653;SDS011;24413;52.450;20.706;2022-12-26T10:51:22;71.40;;;51.72;;
38653;SDS011;24413;52.450;20.706;2022-12-26T10:53:50;74.00;;;50.38;;
38653;SDS011;24413;52.450;20.706;2022-12-26T10:56:16;73.15;;;50.90;;
38653;SDS011;24413;52.450;20.706;2022-12-26T10:58:41;77.75;;;56.20;;
38653;SDS011;24413;52.450;20.706;2022-12-26T11:04:01;83.65;;;51.83;;
38653;SDS011;24413;52.450;20.706;2022-12-26T11:06:35;83.93;;;55.17;;
38653;SDS011;24413;52.450;20.706;2022-12-26T11:09:01;105.43;;;72.97;;
38653;SDS011;24413;52.450;20.706;2022-12-26T11:11:31;95.45;;;64.68;;
38653;SDS011;24413;52.450;20.706;2022-12-26T11:16:57;75.45;;;42.67;;
38653;SDS011;24413;52.450;20.706;2022-12-26T11:21:53;48.42;;;31.95;;
38653;SDS011;24413;52.450;20.706;2022-12-26T11:24:19;71.28;;;39.60;;
38653;SDS011;24413;52.450;20.706;2022-12-26T11:26:45;78.18;;;45.58;;
38653;SDS011;24413;52.450;20.706;2022-12-26T11:29:11;96.90;;;53.90;;
38653;SDS011;24413;52.450;20.706;2022-12-26T11:34:27;58.28;;;34.60;;
38653;SDS011;24413;52.450;20.706;2022-12-26T11:36:58;61.83;;;36.03;;
38653;SDS011;24413;52.450;20.706;2022-12-26T11:39:26;53.50;;;36.03;;
38653;SDS011;24413;52.450;20.706;2022-12-26T11:41:54;88.28;;;50.03;;
38653;SDS011;24413;52.450;20.706;2022-12-26T11:44:30;84.97;;;54.58;;
38653;SDS011;24413;52.450;20.706;2022-12-26T11:54:55;78.15;;;51.28;;
38653;SDS011;24413;52.450;20.706;2022-12-26T11:57:21;86.53;;;48.67;;
38653;SDS011;24413;52.450;20.706;2022-12-26T11:59:51;157.40;;;81.03;;
38653;SDS011;24413;52.450;20.706;2022-12-26T12:02:18;50.10;;;34.70;;
38653;SDS011;24413;52.450;20.706;2022-12-26T12:04:47;51.38;;;29.83;;
38653;SDS011;24413;52.450;20.706;2022-12-26T12:09:50;102.15;;;64.10;;
38653;SDS011;24413;52.450;20.706;2022-12-26T12:12:31;87.18;;;50.80;;
38653;SDS011;24413;52.450;20.706;2022-12-26T12:26:17;219.10;;;106.38;;
38653;SDS011;24413;52.450;20.706;2022-12-26T12:31:57;302.38;;;134.02;;
38653;SDS011;24413;52.450;20.706;2022-12-26T12:42:57;45.28;;;24.92;;
38653;SDS011;24413;52.450;20.706;2022-12-26T12:45:27;37.67;;;21.25;;
38653;SDS011;24413;52.450;20.706;2022-12-26T12:50:32;19.38;;;13.13;;
38653;SDS011;24413;52.450;20.706;2022-12-26T13:01:14;157.50;;;81.05;;
38653;SDS011;24413;52.450;20.706;2022-12-26T13:04:03;122.13;;;70.13;;
38653;SDS011;24413;52.450;20.706;2022-12-26T13:06:41;196.20;;;106.10;;
38653;SDS011;24413;52.450;20.706;2022-12-26T13:14:24;35.45;;;25.05;;
38653;SDS011;24413;52.450;20.706;2022-12-26T13:16:53;31.52;;;19.67;;
38653;SDS011;24413;52.450;20.706;2022-12-26T13:21:46;76.45;;;45.05;;
38653;SDS011;24413;52.450;20.706;2022-12-26T13:24:14;102.15;;;69.93;;
38653;SDS011;24413;52.450;20.706;2022-12-26T13:26:58;86.35;;;54.13;;
38653;SDS011;24413;52.450;20.706;2022-12-26T13:31:56;67.57;;;41.85;;
38653;SDS011;24413;52.450;20.706;2022-12-26T13:34:22;44.58;;;25.83;;
38653;SDS011;24413;52.450;20.706;2022-12-26T13:36:49;42.17;;;25.45;;
38653;SDS011;24413;52.450;20.706;2022-12-26T13:39:26;32.33;;;21.02;;
38653;SDS011;24413;52.450;20.706;2022-12-26T13:41:57;27.58;;;15.23;;
38653;SDS011;24413;52.450;20.706;2022-12-26T13:44:43;40.53;;;19.55;;
38653;SDS011;24413;52.450;20.706;2022-12-26T13:53:04;25.75;;;15.88;;
38653;SDS011;24413;52.450;20.706;2022-12-26T13:55:53;43.45;;;19.85;;
38653;SDS011;24413;52.450;20.706;2022-12-26T14:12:07;40.38;;;23.55;;
38653;SDS011;24413;52.450;20.706;2022-12-26T14:23:22;29.52;;;17.58;;
38653;SDS011;24413;52.450;20.706;2022-12-26T14:33:55;41.05;;;26.73;;
38653;SDS011;24413;52.450;20.706;2022-12-26T14:44:54;345.98;;;197.25;;
38653;SDS011;24413;52.450;20.706;2022-12-26T14:56:00;173.93;;;104.78;;
38653;SDS011;24413;52.450;20.706;2022-12-26T15:11:28;54.38;;;30.35;;
38653;SDS011;24413;52.450;20.706;2022-12-26T15:33:47;43.28;;;24.17;;
38653;SDS011;24413;52.450;20.706;2022-12-26T15:44:03;28.33;;;18.08;;
38653;SDS011;24413;52.450;20.706;2022-12-26T15:46:35;34.65;;;20.38;;
38653;SDS011;24413;52.450;20.706;2022-12-26T15:54:33;34.08;;;19.45;;
38653;SDS011;24413;52.450;20.706;2022-12-26T16:00:14;39.40;;;21.52;;
38653;SDS011;24413;52.450;20.706;2022-12-26T16:05:32;37.50;;;22.35;;
38653;SDS011;24413;52.450;20.706;2022-12-26T16:10:41;56.03;;;28.55;;
38653;SDS011;24413;52.450;20.706;2022-12-26T16:15:51;106.22;;;58.33;;
38653;SDS011;24413;52.450;20.706;2022-12-26T16:18:22;42.17;;;26.75;;
38653;SDS011;24413;52.450;20.706;2022-12-26T16:20:51;43.05;;;26.13;;
38653;SDS011;24413;52.450;20.706;2022-12-26T16:23:38;51.95;;;27.42;;
38653;SDS011;24413;52.450;20.706;2022-12-26T16:26:04;56.75;;;36.10;;
38653;SDS011;24413;52.450;20.706;2022-12-26T16:28:33;70.18;;;40.55;;
38653;SDS011;24413;52.450;20.706;2022-12-26T16:31:08;36.55;;;22.63;;
38653;SDS011;24413;52.450;20.706;2022-12-26T16:33:38;38.20;;;24.88;;
38653;SDS011;24413;52.450;20.706;2022-12-26T16:36:06;38.25;;;24.30;;
38653;SDS011;24413;52.450;20.706;2022-12-26T16:38:32;43.63;;;26.00;;
38653;SDS011;24413;52.450;20.706;2022-12-26T16:40:58;42.20;;;24.23;;
38653;SDS011;24413;52.450;20.706;2022-12-26T16:43:28;22.52;;;13.90;;
38653;SDS011;24413;52.450;20.706;2022-12-26T16:45:57;36.30;;;24.40;;
38653;SDS011;24413;52.450;20.706;2022-12-26T16:48:25;39.40;;;25.25;;
38653;SDS011;24413;52.450;20.706;2022-12-26T16:50:54;38.28;;;24.30;;
38653;SDS011;24413;52.450;20.706;2022-12-26T16:58:48;37.38;;;21.73;;
38653;SDS011;24413;52.450;20.706;2022-12-26T17:01:17;34.78;;;21.95;;
38653;SDS011;24413;52.450;20.706;2022-12-26T17:06:15;36.60;;;20.00;;
38653;SDS011;24413;52.450;20.706;2022-12-26T17:08:46;25.73;;;18.17;;
38653;SDS011;24413;52.450;20.706;2022-12-26T17:11:13;31.38;;;18.85;;
38653;SDS011;24413;52.450;20.706;2022-12-26T17:13:39;38.28;;;21.65;;
38653;SDS011;24413;52.450;20.706;2022-12-26T17:16:05;29.10;;;19.40;;
38653;SDS011;24413;52.450;20.706;2022-12-26T17:18:41;26.13;;;16.17;;
38653;SDS011;24413;52.450;20.706;2022-12-26T17:21:22;26.85;;;16.38;;
38653;SDS011;24413;52.450;20.706;2022-12-26T17:23:59;36.25;;;16.95;;
38653;SDS011;24413;52.450;20.706;2022-12-26T17:26:28;25.13;;;15.40;;
38653;SDS011;24413;52.450;20.706;2022-12-26T17:28:54;25.77;;;15.93;;
38653;SDS011;24413;52.450;20.706;2022-12-26T17:31:41;24.75;;;15.43;;
38653;SDS011;24413;52.450;20.706;2022-12-26T17:34:13;28.63;;;17.40;;
38653;SDS011;24413;52.450;20.706;2022-12-26T17:36:51;31.55;;;18.50;;
38653;SDS011;24413;52.450;20.706;2022-12-26T17:39:19;21.35;;;14.27;;
38653;SDS011;24413;52.450;20.706;2022-12-26T17:41:56;19.20;;;12.43;;
38653;SDS011;24413;52.450;20.706;2022-12-26T17:44:43;26.73;;;15.38;;
38653;SDS011;24413;52.450;20.706;2022-12-26T17:49:48;27.95;;;16.33;;
38653;SDS011;24413;52.450;20.706;2022-12-26T17:52:16;19.25;;;13.23;;
38653;SDS011;24413;52.450;20.706;2022-12-26T17:54:44;31.70;;;16.92;;
38653;SDS011;24413;52.450;20.706;2022-12-26T17:57:23;29.45;;;17.33;;
38653;SDS011;24413;52.450;20.706;2022-12-26T17:59:50;26.70;;;18.30;;
38653;SDS011;24413;52.450;20.706;2022-12-26T18:02:16;27.70;;;16.45;;
38653;SDS011;24413;52.450;20.706;2022-12-26T18:04:42;33.35;;;19.40;;
38653;SDS011;24413;52.450;20.706;2022-12-26T18:07:11;36.90;;;18.48;;
38653;SDS011;24413;52.450;20.706;2022-12-26T18:09:44;21.92;;;15.43;;
38653;SDS011;24413;52.450;20.706;2022-12-26T18:12:10;23.13;;;14.68;;
38653;SDS011;24413;52.450;20.706;2022-12-26T18:14:37;23.05;;;15.43;;
38653;SDS011;24413;52.450;20.706;2022-12-26T18:17:03;18.92;;;13.70;;
38653;SDS011;24413;52.450;20.706;2022-12-26T18:19:31;23.65;;;15.63;;
38653;SDS011;24413;52.450;20.706;2022-12-26T18:21:59;35.72;;;20.80;;
38653;SDS011;24413;52.450;20.706;2022-12-26T18:24:25;26.63;;;17.58;;
38653;SDS011;24413;52.450;20.706;2022-12-26T18:26:50;23.98;;;16.20;;
38653;SDS011;24413;52.450;20.706;2022-12-26T18:29:17;25.15;;;16.63;;
38653;SDS011;24413;52.450;20.706;2022-12-26T18:31:43;27.33;;;16.20;;
38653;SDS011;24413;52.450;20.706;2022-12-26T18:34:08;24.70;;;18.23;;
38653;SDS011;24413;52.450;20.706;2022-12-26T18:36:35;27.92;;;18.60;;
38653;SDS011;24413;52.450;20.706;2022-12-26T18:39:02;26.17;;;17.35;;
38653;SDS011;24413;52.450;20.706;2022-12-26T18:41:28;24.55;;;17.77;;
38653;SDS011;24413;52.450;20.706;2022-12-26T18:43:54;31.40;;;17.42;;
38653;SDS011;24413;52.450;20.706;2022-12-26T18:46:21;34.55;;;19.40;;
38653;SDS011;24413;52.450;20.706;2022-12-26T18:48:48;38.85;;;21.88;;
38653;SDS011;24413;52.450;20.706;2022-12-26T18:51:15;31.17;;;18.40;;
38653;SDS011;24413;52.450;20.706;2022-12-26T18:53:40;37.20;;;20.17;;
38653;SDS011;24413;52.450;20.706;2022-12-26T18:56:08;31.02;;;19.73;;
38653;SDS011;24413;52.450;20.706;2022-12-26T18:58:37;27.45;;;17.05;;
38653;SDS011;24413;52.450;20.706;2022-12-26T19:01:02;34.95;;;20.45;;
38653;SDS011;24413;52.450;20.706;2022-12-26T19:03:28;31.42;;;17.63;;
38653;SDS011;24413;52.450;20.706;2022-12-26T19:05:53;25.15;;;17.52;;